sensor_id;sensor_type;location;lat;lon;timestamp;P1;durP1;ratioP1;P2;durP2;ratioP2
79284;SDS011;68734;50.452;11.636;2023-06-14T00:02:11;7.32;;;4.50;;
79284;SDS011;68734;50.452;11.636;2023-06-14T00:04:36;6.05;;;4.32;;
79284;SDS011;68734;50.452;11.636;2023-06-14T00:07:06;6.75;;;4.68;;
79284;SDS011;68734;50.452;11.636;2023-06-14T00:09:34;5.93;;;4.50;;
79284;SDS011;68734;50.452;11.636;2023-06-14T00:12:00;6.13;;;4.32;;
79284;SDS011;68734;50.452;11.636;2023-06-14T00:14:26;6.40;;;4.25;;
79284;SDS011;68734;50.452;11.636;2023-06-14T00:16:51;7.85;;;5.05;;
79284;SDS011;68734;50.452;11.636;2023-06-14T00:19:23;8.35;;;4.00;;
79284;SDS011;68734;50.452;11.636;2023-06-14T00:21:50;6.68;;;4.07;;
79284;SDS011;68734;50.452;11.636;2023-06-14T00:24:17;6.07;;;4.47;;
79284;SDS011;68734;50.452;11.636;2023-06-14T00:26:42;6.70;;;4.18;;
79284;SDS011;68734;50.452;11.636;2023-06-14T00:29:07;6.30;;;4.38;;
79284;SDS011;68734;50.452;11.636;2023-06-14T00:31:35;9.07;;;4.97;;
79284;SDS011;68734;50.452;11.636;2023-06-14T00:34:01;6.30;;;4.07;;
79284;SDS011;68734;50.452;11.636;2023-06-14T00:36:26;8.18;;;4.43;;
79284;SDS011;68734;50.452;11.636;2023-06-14T00:38:52;8.43;;;5.32;;
79284;SDS011;68734;50.452;11.636;2023-06-14T00:41:17;7.57;;;4.22;;
79284;SDS011;68734;50.452;11.636;2023-06-14T00:43:43;8.93;;;4.13;;
79284;SDS011;68734;50.452;11.636;2023-06-14T00:46:08;9.32;;;4.40;;
79284;SDS011;68734;50.452;11.636;2023-06-14T00:48:34;9.55;;;5.82;;
79284;SDS011;68734;50.452;11.636;2023-06-14T00:51:01;8.02;;;4.38;;
79284;SDS011;68734;50.452;11.636;2023-06-14T00:53:29;9.70;;;5.53;;
79284;SDS011;68734;50.452;11.636;2023-06-14T00:55:56;7.93;;;4.80;;
79284;SDS011;68734;50.452;11.636;2023-06-14T00:58:22;6.57;;;4.47;;
79284;SDS011;68734;50.452;11.636;2023-06-14T01:00:52;7.40;;;4.43;;
79284;SDS011;68734;50.452;11.636;2023-06-14T01:03:17;8.15;;;4.88;;
79284;SDS011;68734;50.452;11.636;2023-06-14T01:05:47;6.68;;;4.45;;
79284;SDS011;68734;50.452;11.636;2023-06-14T01:08:23;6.28;;;4.07;;
79284;SDS011;68734;50.452;11.636;2023-06-14T01:10:56;6.88;;;4.43;;
79284;SDS011;68734;50.452;11.636;2023-06-14T01:13:37;6.38;;;4.28;;
79284;SDS011;68734;50.452;11.636;2023-06-14T01:16:07;8.82;;;4.68;;
79284;SDS011;68734;50.452;11.636;2023-06-14T01:18:33;6.28;;;4.57;;
79284;SDS011;68734;50.452;11.636;2023-06-14T01:21:00;10.57;;;4.75;;
79284;SDS011;68734;50.452;11.636;2023-06-14T01:23:30;5.25;;;4.13;;
79284;SDS011;68734;50.452;11.636;2023-06-14T01:25:58;7.68;;;4.57;;
79284;SDS011;68734;50.452;11.636;2023-06-14T01:28:25;8.02;;;4.32;;
79284;SDS011;68734;50.452;11.636;2023-06-14T01:30:56;11.25;;;5.07;;
79284;SDS011;68734;50.452;11.636;2023-06-14T01:33:26;6.72;;;4.53;;
79284;SDS011;68734;50.452;11.636;2023-06-14T01:35:53;6.63;;;4.57;;
79284;SDS011;68734;50.452;11.636;2023-06-14T01:38:21;9.02;;;4.97;;
79284;SDS011;68734;50.452;11.636;2023-06-14T01:40:49;5.90;;;4.45;;
79284;SDS011;68734;50.452;11.636;2023-06-14T01:43:17;5.93;;;4.47;;
79284;SDS011;68734;50.452;11.636;2023-06-14T01:45:46;6.47;;;4.55;;
79284;SDS011;68734;50.452;11.636;2023-06-14T01:48:16;10.02;;;4.63;;
79284;SDS011;68734;50.452;11.636;2023-06-14T01:50:42;6.70;;;4.35;;
79284;SDS011;68734;50.452;11.636;2023-06-14T01:53:07;7.70;;;5.00;;
79284;SDS011;68734;50.452;11.636;2023-06-14T01:55:34;6.20;;;4.75;;
79284;SDS011;68734;50.452;11.636;2023-06-14T01:58:02;7.15;;;5.10;;
79284;SDS011;68734;50.452;11.636;2023-06-14T02:00:28;6.78;;;4.32;;
79284;SDS011;68734;50.452;11.636;2023-06-14T02:02:53;7.30;;;4.40;;
79284;SDS011;68734;50.452;11.636;2023-06-14T02:05:19;8.05;;;4.95;;
79284;SDS011;68734;50.452;11.636;2023-06-14T02:07:47;7.22;;;4.93;;
79284;SDS011;68734;50.452;11.636;2023-06-14T02:10:12;7.15;;;4.43;;
79284;SDS011;68734;50.452;11.636;2023-06-14T02:12:39;10.98;;;5.60;;
79284;SDS011;68734;50.452;11.636;2023-06-14T02:15:05;7.35;;;4.43;;
79284;SDS011;68734;50.452;11.636;2023-06-14T02:17:32;7.13;;;5.47;;
79284;SDS011;68734;50.452;11.636;2023-06-14T02:19:57;7.90;;;4.90;;
79284;SDS011;68734;50.452;11.636;2023-06-14T02:22:23;5.80;;;4.63;;
79284;SDS011;68734;50.452;11.636;2023-06-14T02:24:48;8.82;;;4.80;;
79284;SDS011;68734;50.452;11.636;2023-06-14T02:27:15;8.73;;;5.03;;
79284;SDS011;68734;50.452;11.636;2023-06-14T02:29:40;8.68;;;5.20;;
79284;SDS011;68734;50.452;11.636;2023-06-14T02:32:06;7.40;;;4.85;;
79284;SDS011;68734;50.452;11.636;2023-06-14T02:34:32;6.28;;;4.53;;
79284;SDS011;68734;50.452;11.636;2023-06-14T02:36:59;9.10;;;4.75;;
79284;SDS011;68734;50.452;11.636;2023-06-14T02:39:24;6.93;;;4.47;;
79284;SDS011;68734;50.452;11.636;2023-06-14T02:41:50;9.18;;;5.30;;
79284;SDS011;68734;50.452;11.636;2023-06-14T02:44:17;6.70;;;4.28;;
79284;SDS011;68734;50.452;11.636;2023-06-14T02:46:43;6.88;;;4.90;;
79284;SDS011;68734;50.452;11.636;2023-06-14T02:49:09;7.70;;;4.60;;
79284;SDS011;68734;50.452;11.636;2023-06-14T02:51:35;7.30;;;4.63;;
79284;SDS011;68734;50.452;11.636;2023-06-14T02:54:00;7.55;;;4.68;;
79284;SDS011;68734;50.452;11.636;2023-06-14T02:56:26;7.68;;;4.88;;
79284;SDS011;68734;50.452;11.636;2023-06-14T02:58:53;7.30;;;4.75;;
79284;SDS011;68734;50.452;11.636;2023-06-14T03:01:18;7.15;;;5.35;;
79284;SDS011;68734;50.452;11.636;2023-06-14T03:03:45;6.20;;;4.55;;
79284;SDS011;68734;50.452;11.636;2023-06-14T03:06:13;8.18;;;4.38;;
79284;SDS011;68734;50.452;11.636;2023-06-14T03:08:41;7.32;;;5.18;;
79284;SDS011;68734;50.452;11.636;2023-06-14T03:11:07;7.45;;;5.20;;
79284;SDS011;68734;50.452;11.636;2023-06-14T03:13:33;7.88;;;4.97;;
79284;SDS011;68734;50.452;11.636;2023-06-14T03:16:02;9.52;;;5.53;;
79284;SDS011;68734;50.452;11.636;2023-06-14T03:18:29;6.57;;;4.32;;
79284;SDS011;68734;50.452;11.636;2023-06-14T03:20:56;6.90;;;4.95;;
79284;SDS011;68734;50.452;11.636;2023-06-14T03:23:23;7.10;;;4.57;;
79284;SDS011;68734;50.452;11.636;2023-06-14T03:25:52;5.60;;;4.07;;
79284;SDS011;68734;50.452;11.636;2023-06-14T03:28:18;5.85;;;4.47;;
79284;SDS011;68734;50.452;11.636;2023-06-14T03:30:43;6.35;;;4.20;;
79284;SDS011;68734;50.452;11.636;2023-06-14T03:33:08;5.15;;;4.10;;
79284;SDS011;68734;50.452;11.636;2023-06-14T03:35:36;5.32;;;3.90;;
79284;SDS011;68734;50.452;11.636;2023-06-14T03:38:02;6.80;;;3.72;;
79284;SDS011;68734;50.452;11.636;2023-06-14T03:40:30;4.97;;;3.97;;
79284;SDS011;68734;50.452;11.636;2023-06-14T03:42:56;4.90;;;3.70;;
79284;SDS011;68734;50.452;11.636;2023-06-14T03:45:21;6.18;;;3.97;;
79284;SDS011;68734;50.452;11.636;2023-06-14T03:47:47;5.55;;;4.13;;
79284;SDS011;68734;50.452;11.636;2023-06-14T03:50:13;5.40;;;3.83;;
79284;SDS011;68734;50.452;11.636;2023-06-14T03:52:38;6.03;;;3.88;;
79284;SDS011;68734;50.452;11.636;2023-06-14T03:55:04;5.70;;;3.75;;
79284;SDS011;68734;50.452;11.636;2023-06-14T03:57:30;5.13;;;3.78;;
79284;SDS011;68734;50.452;11.636;2023-06-14T03:59:56;5.45;;;3.90;;
79284;SDS011;68734;50.452;11.636;2023-06-14T04:02:22;5.38;;;4.13;;
79284;SDS011;68734;50.452;11.636;2023-06-14T04:04:47;5.57;;;4.38;;
79284;SDS011;68734;50.452;11.636;2023-06-14T04:07:17;7.60;;;3.97;;
79284;SDS011;68734;50.452;11.636;2023-06-14T04:12:11;5.35;;;3.45;;
79284;SDS011;68734;50.452;11.636;2023-06-14T04:14:37;5.85;;;3.78;;
79284;SDS011;68734;50.452;11.636;2023-06-14T04:17:03;5.00;;;3.72;;
79284;SDS011;68734;50.452;11.636;2023-06-14T04:19:28;6.78;;;4.13;;
79284;SDS011;68734;50.452;11.636;2023-06-14T04:21:54;5.25;;;3.95;;
79284;SDS011;68734;50.452;11.636;2023-06-14T04:24:20;6.18;;;4.13;;
79284;SDS011;68734;50.452;11.636;2023-06-14T04:26:56;5.28;;;3.58;;
79284;SDS011;68734;50.452;11.636;2023-06-14T04:29:23;5.70;;;3.22;;
79284;SDS011;68734;50.452;11.636;2023-06-14T04:31:51;7.43;;;4.03;;
79284;SDS011;68734;50.452;11.636;2023-06-14T04:34:17;6.43;;;3.85;;
79284;SDS011;68734;50.452;11.636;2023-06-14T04:36:42;6.88;;;3.50;;
79284;SDS011;68734;50.452;11.636;2023-06-14T04:41:49;6.22;;;4.15;;
79284;SDS011;68734;50.452;11.636;2023-06-14T04:44:21;8.13;;;4.15;;
79284;SDS011;68734;50.452;11.636;2023-06-14T04:46:49;4.50;;;3.33;;
79284;SDS011;68734;50.452;11.636;2023-06-14T04:49:15;7.07;;;3.88;;
79284;SDS011;68734;50.452;11.636;2023-06-14T04:51:41;6.68;;;3.97;;
79284;SDS011;68734;50.452;11.636;2023-06-14T04:54:08;4.82;;;3.45;;
79284;SDS011;68734;50.452;11.636;2023-06-14T04:56:40;9.18;;;4.43;;
79284;SDS011;68734;50.452;11.636;2023-06-14T04:59:07;5.32;;;3.67;;
79284;SDS011;68734;50.452;11.636;2023-06-14T05:01:33;6.38;;;3.90;;
79284;SDS011;68734;50.452;11.636;2023-06-14T05:04:02;5.55;;;3.63;;
79284;SDS011;68734;50.452;11.636;2023-06-14T05:06:30;5.93;;;4.38;;
79284;SDS011;68734;50.452;11.636;2023-06-14T05:08:56;7.68;;;4.05;;
79284;SDS011;68734;50.452;11.636;2023-06-14T05:11:21;6.50;;;4.22;;
79284;SDS011;68734;50.452;11.636;2023-06-14T05:13:49;6.57;;;4.30;;
79284;SDS011;68734;50.452;11.636;2023-06-14T05:16:15;5.97;;;3.85;;
79284;SDS011;68734;50.452;11.636;2023-06-14T05:18:42;4.05;;;3.53;;
79284;SDS011;68734;50.452;11.636;2023-06-14T05:21:07;7.70;;;4.55;;
79284;SDS011;68734;50.452;11.636;2023-06-14T05:23:33;5.93;;;3.22;;
79284;SDS011;68734;50.452;11.636;2023-06-14T05:25:59;6.00;;;3.65;;
79284;SDS011;68734;50.452;11.636;2023-06-14T05:28:25;5.75;;;3.67;;
79284;SDS011;68734;50.452;11.636;2023-06-14T05:30:51;4.88;;;3.45;;
79284;SDS011;68734;50.452;11.636;2023-06-14T05:33:18;6.05;;;3.65;;
79284;SDS011;68734;50.452;11.636;2023-06-14T05:35:46;6.93;;;3.58;;
79284;SDS011;68734;50.452;11.636;2023-06-14T05:38:11;4.05;;;3.20;;
79284;SDS011;68734;50.452;11.636;2023-06-14T05:40:37;7.50;;;3.88;;
79284;SDS011;68734;50.452;11.636;2023-06-14T05:43:02;4.25;;;3.33;;
79284;SDS011;68734;50.452;11.636;2023-06-14T05:45:28;5.75;;;3.75;;
79284;SDS011;68734;50.452;11.636;2023-06-14T05:47:56;6.10;;;2.95;;
79284;SDS011;68734;50.452;11.636;2023-06-14T05:50:21;6.20;;;3.60;;
79284;SDS011;68734;50.452;11.636;2023-06-14T05:52:47;5.85;;;3.42;;
79284;SDS011;68734;50.452;11.636;2023-06-14T05:55:15;5.40;;;3.10;;
79284;SDS011;68734;50.452;11.636;2023-06-14T05:57:43;5.68;;;3.10;;
79284;SDS011;68734;50.452;11.636;2023-06-14T06:00:09;8.60;;;3.60;;
79284;SDS011;68734;50.452;11.636;2023-06-14T06:02:42;3.83;;;3.10;;
79284;SDS011;68734;50.452;11.636;2023-06-14T06:05:08;5.40;;;3.47;;
79284;SDS011;68734;50.452;11.636;2023-06-14T06:07:34;5.85;;;3.03;;
79284;SDS011;68734;50.452;11.636;2023-06-14T06:10:00;5.63;;;3.80;;
79284;SDS011;68734;50.452;11.636;2023-06-14T06:12:25;11.05;;;3.75;;
79284;SDS011;68734;50.452;11.636;2023-06-14T06:14:53;6.13;;;2.90;;
79284;SDS011;68734;50.452;11.636;2023-06-14T06:17:18;4.40;;;3.30;;
79284;SDS011;68734;50.452;11.636;2023-06-14T06:19:44;6.07;;;3.50;;
79284;SDS011;68734;50.452;11.636;2023-06-14T06:22:09;5.07;;;3.03;;
79284;SDS011;68734;50.452;11.636;2023-06-14T06:24:35;5.85;;;3.20;;
79284;SDS011;68734;50.452;11.636;2023-06-14T06:27:03;4.65;;;3.00;;
79284;SDS011;68734;50.452;11.636;2023-06-14T06:29:29;4.72;;;2.78;;
79284;SDS011;68734;50.452;11.636;2023-06-14T06:31:56;5.45;;;3.40;;
79284;SDS011;68734;50.452;11.636;2023-06-14T06:34:22;5.55;;;3.22;;
79284;SDS011;68734;50.452;11.636;2023-06-14T06:36:49;5.60;;;3.53;;
79284;SDS011;68734;50.452;11.636;2023-06-14T06:39:15;4.85;;;2.85;;
79284;SDS011;68734;50.452;11.636;2023-06-14T06:41:41;4.10;;;2.67;;
79284;SDS011;68734;50.452;11.636;2023-06-14T06:44:06;6.45;;;3.17;;
79284;SDS011;68734;50.452;11.636;2023-06-14T06:46:32;3.33;;;2.63;;
79284;SDS011;68734;50.452;11.636;2023-06-14T06:48:59;3.63;;;3.15;;
79284;SDS011;68734;50.452;11.636;2023-06-14T06:51:25;3.60;;;2.78;;
79284;SDS011;68734;50.452;11.636;2023-06-14T06:53:56;5.25;;;3.33;;
79284;SDS011;68734;50.452;11.636;2023-06-14T06:56:21;7.65;;;3.45;;
79284;SDS011;68734;50.452;11.636;2023-06-14T06:58:49;4.40;;;3.25;;
79284;SDS011;68734;50.452;11.636;2023-06-14T07:01:17;7.38;;;2.83;;
79284;SDS011;68734;50.452;11.636;2023-06-14T07:03:44;8.40;;;3.67;;
79284;SDS011;68734;50.452;11.636;2023-06-14T07:06:10;4.28;;;3.08;;
79284;SDS011;68734;50.452;11.636;2023-06-14T07:08:36;6.63;;;3.47;;
79284;SDS011;68734;50.452;11.636;2023-06-14T07:11:03;8.98;;;2.78;;
79284;SDS011;68734;50.452;11.636;2023-06-14T07:13:29;5.03;;;2.67;;
79284;SDS011;68734;50.452;11.636;2023-06-14T07:15:57;6.25;;;3.15;;
79284;SDS011;68734;50.452;11.636;2023-06-14T07:18:23;6.15;;;2.83;;
79284;SDS011;68734;50.452;11.636;2023-06-14T07:20:49;7.03;;;3.17;;
79284;SDS011;68734;50.452;11.636;2023-06-14T07:23:15;4.75;;;2.97;;
79284;SDS011;68734;50.452;11.636;2023-06-14T07:25:40;3.50;;;2.95;;
79284;SDS011;68734;50.452;11.636;2023-06-14T07:28:06;3.97;;;3.00;;
79284;SDS011;68734;50.452;11.636;2023-06-14T07:30:32;4.45;;;3.08;;
79284;SDS011;68734;50.452;11.636;2023-06-14T07:32:57;5.28;;;3.35;;
79284;SDS011;68734;50.452;11.636;2023-06-14T07:35:23;10.27;;;3.92;;
79284;SDS011;68734;50.452;11.636;2023-06-14T07:37:48;6.43;;;3.40;;
79284;SDS011;68734;50.452;11.636;2023-06-14T07:40:14;4.95;;;2.90;;
79284;SDS011;68734;50.452;11.636;2023-06-14T07:42:40;5.20;;;3.20;;
79284;SDS011;68734;50.452;11.636;2023-06-14T07:45:06;4.47;;;3.20;;
79284;SDS011;68734;50.452;11.636;2023-06-14T07:47:32;5.40;;;3.30;;
79284;SDS011;68734;50.452;11.636;2023-06-14T07:49:58;5.38;;;3.40;;
79284;SDS011;68734;50.452;11.636;2023-06-14T07:52:23;4.25;;;2.72;;
79284;SDS011;68734;50.452;11.636;2023-06-14T07:54:49;4.70;;;2.78;;
79284;SDS011;68734;50.452;11.636;2023-06-14T07:57:14;5.82;;;2.95;;
79284;SDS011;68734;50.452;11.636;2023-06-14T07:59:39;4.80;;;2.85;;
79284;SDS011;68734;50.452;11.636;2023-06-14T08:02:05;4.35;;;3.30;;
79284;SDS011;68734;50.452;11.636;2023-06-14T08:04:33;3.28;;;2.50;;
79284;SDS011;68734;50.452;11.636;2023-06-14T08:06:59;4.55;;;3.30;;
79284;SDS011;68734;50.452;11.636;2023-06-14T08:09:27;6.57;;;3.55;;
79284;SDS011;68734;50.452;11.636;2023-06-14T08:11:56;4.00;;;3.22;;
79284;SDS011;68734;50.452;11.636;2023-06-14T08:14:25;4.35;;;2.85;;
79284;SDS011;68734;50.452;11.636;2023-06-14T08:16:56;9.00;;;3.00;;
79284;SDS011;68734;50.452;11.636;2023-06-14T08:19:21;6.43;;;3.17;;
79284;SDS011;68734;50.452;11.636;2023-06-14T08:21:47;7.30;;;3.40;;
79284;SDS011;68734;50.452;11.636;2023-06-14T08:24:13;4.65;;;2.70;;
79284;SDS011;68734;50.452;11.636;2023-06-14T08:26:39;4.50;;;2.83;;
79284;SDS011;68734;50.452;11.636;2023-06-14T08:29:04;5.43;;;2.92;;
79284;SDS011;68734;50.452;11.636;2023-06-14T08:31:32;5.95;;;3.10;;
79284;SDS011;68734;50.452;11.636;2023-06-14T08:33:58;4.28;;;3.03;;
79284;SDS011;68734;50.452;11.636;2023-06-14T08:36:23;5.93;;;2.60;;
79284;SDS011;68734;50.452;11.636;2023-06-14T08:38:48;4.43;;;3.10;;
79284;SDS011;68734;50.452;11.636;2023-06-14T08:41:22;5.55;;;3.05;;
79284;SDS011;68734;50.452;11.636;2023-06-14T08:43:49;3.30;;;2.45;;
79284;SDS011;68734;50.452;11.636;2023-06-14T08:46:16;3.47;;;2.58;;
79284;SDS011;68734;50.452;11.636;2023-06-14T08:48:46;3.90;;;2.55;;
79284;SDS011;68734;50.452;11.636;2023-06-14T08:51:12;4.63;;;2.58;;
79284;SDS011;68734;50.452;11.636;2023-06-14T08:53:41;6.22;;;2.90;;
79284;SDS011;68734;50.452;11.636;2023-06-14T08:56:08;3.42;;;2.70;;
79284;SDS011;68734;50.452;11.636;2023-06-14T08:58:44;3.53;;;2.28;;
79284;SDS011;68734;50.452;11.636;2023-06-14T09:01:11;4.82;;;2.58;;
79284;SDS011;68734;50.452;11.636;2023-06-14T09:03:41;3.85;;;2.38;;
79284;SDS011;68734;50.452;11.636;2023-06-14T09:06:07;4.97;;;2.60;;
79284;SDS011;68734;50.452;11.636;2023-06-14T09:08:39;3.22;;;2.22;;
79284;SDS011;68734;50.452;11.636;2023-06-14T09:11:10;4.95;;;2.70;;
79284;SDS011;68734;50.452;11.636;2023-06-14T09:13:37;4.35;;;2.60;;
79284;SDS011;68734;50.452;11.636;2023-06-14T09:16:03;4.70;;;2.53;;
79284;SDS011;68734;50.452;11.636;2023-06-14T09:18:34;4.55;;;2.97;;
79284;SDS011;68734;50.452;11.636;2023-06-14T09:21:00;5.53;;;2.30;;
79284;SDS011;68734;50.452;11.636;2023-06-14T09:23:25;5.93;;;2.30;;
79284;SDS011;68734;50.452;11.636;2023-06-14T09:25:51;3.50;;;2.38;;
79284;SDS011;68734;50.452;11.636;2023-06-14T09:28:16;3.83;;;2.30;;
79284;SDS011;68734;50.452;11.636;2023-06-14T09:30:42;3.08;;;2.47;;
79284;SDS011;68734;50.452;11.636;2023-06-14T09:33:08;4.43;;;2.70;;
79284;SDS011;68734;50.452;11.636;2023-06-14T09:35:34;3.17;;;2.53;;
79284;SDS011;68734;50.452;11.636;2023-06-14T09:37:59;7.28;;;2.50;;
79284;SDS011;68734;50.452;11.636;2023-06-14T09:40:26;3.45;;;2.30;;
79284;SDS011;68734;50.452;11.636;2023-06-14T09:42:53;3.28;;;2.38;;
79284;SDS011;68734;50.452;11.636;2023-06-14T09:45:18;6.75;;;2.63;;
79284;SDS011;68734;50.452;11.636;2023-06-14T09:47:49;4.28;;;2.50;;
79284;SDS011;68734;50.452;11.636;2023-06-14T09:50:16;2.97;;;2.33;;
79284;SDS011;68734;50.452;11.636;2023-06-14T09:52:43;7.18;;;2.67;;
79284;SDS011;68734;50.452;11.636;2023-06-14T09:55:11;4.43;;;2.60;;
79284;SDS011;68734;50.452;11.636;2023-06-14T09:57:38;8.27;;;2.40;;
79284;SDS011;68734;50.452;11.636;2023-06-14T10:00:07;2.85;;;2.35;;
79284;SDS011;68734;50.452;11.636;2023-06-14T10:02:36;4.50;;;2.22;;
79284;SDS011;68734;50.452;11.636;2023-06-14T10:07:32;3.63;;;2.65;;
79284;SDS011;68734;50.452;11.636;2023-06-14T10:10:04;4.18;;;2.70;;
79284;SDS011;68734;50.452;11.636;2023-06-14T10:12:30;6.63;;;2.75;;
79284;SDS011;68734;50.452;11.636;2023-06-14T10:14:56;4.57;;;2.78;;
79284;SDS011;68734;50.452;11.636;2023-06-14T10:17:27;7.07;;;2.90;;
79284;SDS011;68734;50.452;11.636;2023-06-14T10:19:57;6.28;;;2.72;;
79284;SDS011;68734;50.452;11.636;2023-06-14T10:22:36;3.70;;;2.38;;
79284;SDS011;68734;50.452;11.636;2023-06-14T10:25:07;3.60;;;2.55;;
79284;SDS011;68734;50.452;11.636;2023-06-14T10:27:38;4.13;;;2.40;;
79284;SDS011;68734;50.452;11.636;2023-06-14T10:30:04;3.33;;;2.42;;
79284;SDS011;68734;50.452;11.636;2023-06-14T10:32:32;3.45;;;2.80;;
79284;SDS011;68734;50.452;11.636;2023-06-14T10:35:05;3.70;;;2.70;;
79284;SDS011;68734;50.452;11.636;2023-06-14T10:37:34;3.50;;;2.65;;
79284;SDS011;68734;50.452;11.636;2023-06-14T10:40:00;4.22;;;2.40;;
79284;SDS011;68734;50.452;11.636;2023-06-14T10:42:32;4.60;;;2.60;;
79284;SDS011;68734;50.452;11.636;2023-06-14T10:44:58;3.75;;;2.63;;
79284;SDS011;68734;50.452;11.636;2023-06-14T10:47:32;3.35;;;2.70;;
79284;SDS011;68734;50.452;11.636;2023-06-14T10:50:06;5.78;;;3.63;;
79284;SDS011;68734;50.452;11.636;2023-06-14T10:52:33;5.38;;;2.45;;
79284;SDS011;68734;50.452;11.636;2023-06-14T10:57:34;4.57;;;2.70;;
79284;SDS011;68734;50.452;11.636;2023-06-14T11:00:00;3.33;;;2.13;;
79284;SDS011;68734;50.452;11.636;2023-06-14T11:05:49;2.55;;;2.10;;
79284;SDS011;68734;50.452;11.636;2023-06-14T11:08:22;4.38;;;2.30;;
79284;SDS011;68734;50.452;11.636;2023-06-14T11:10:54;3.08;;;2.53;;
79284;SDS011;68734;50.452;11.636;2023-06-14T11:13:25;2.60;;;2.30;;
79284;SDS011;68734;50.452;11.636;2023-06-14T11:15:51;2.97;;;2.22;;
79284;SDS011;68734;50.452;11.636;2023-06-14T11:18:18;4.95;;;2.13;;
79284;SDS011;68734;50.452;11.636;2023-06-14T11:20:46;4.22;;;2.47;;
79284;SDS011;68734;50.452;11.636;2023-06-14T11:23:12;3.20;;;2.25;;
79284;SDS011;68734;50.452;11.636;2023-06-14T11:25:37;3.15;;;2.30;;
79284;SDS011;68734;50.452;11.636;2023-06-14T11:28:03;3.13;;;2.58;;
79284;SDS011;68734;50.452;11.636;2023-06-14T11:30:28;3.95;;;1.98;;
79284;SDS011;68734;50.452;11.636;2023-06-14T11:32:54;3.00;;;2.27;;
79284;SDS011;68734;50.452;11.636;2023-06-14T11:35:23;4.45;;;2.45;;
79284;SDS011;68734;50.452;11.636;2023-06-14T11:37:52;2.60;;;2.00;;
79284;SDS011;68734;50.452;11.636;2023-06-14T11:40:24;3.45;;;2.40;;
79284;SDS011;68734;50.452;11.636;2023-06-14T11:42:54;3.25;;;2.00;;
79284;SDS011;68734;50.452;11.636;2023-06-14T11:45:24;3.80;;;2.28;;
79284;SDS011;68734;50.452;11.636;2023-06-14T11:47:50;3.28;;;2.00;;
79284;SDS011;68734;50.452;11.636;2023-06-14T11:50:15;4.72;;;2.45;;
79284;SDS011;68734;50.452;11.636;2023-06-14T11:52:41;3.28;;;2.13;;
79284;SDS011;68734;50.452;11.636;2023-06-14T11:55:06;2.65;;;1.70;;
79284;SDS011;68734;50.452;11.636;2023-06-14T11:57:35;3.25;;;2.20;;
79284;SDS011;68734;50.452;11.636;2023-06-14T12:00:04;3.30;;;1.90;;
79284;SDS011;68734;50.452;11.636;2023-06-14T12:02:37;3.35;;;2.03;;
79284;SDS011;68734;50.452;11.636;2023-06-14T12:05:06;3.03;;;2.10;;
79284;SDS011;68734;50.452;11.636;2023-06-14T12:07:36;3.58;;;1.90;;
79284;SDS011;68734;50.452;11.636;2023-06-14T12:12:35;5.97;;;2.78;;
79284;SDS011;68734;50.452;11.636;2023-06-14T12:15:09;3.90;;;2.42;;
79284;SDS011;68734;50.452;11.636;2023-06-14T12:17:38;5.00;;;2.38;;
79284;SDS011;68734;50.452;11.636;2023-06-14T12:20:11;2.83;;;2.10;;
79284;SDS011;68734;50.452;11.636;2023-06-14T12:22:50;3.42;;;2.20;;
79284;SDS011;68734;50.452;11.636;2023-06-14T12:27:56;4.70;;;2.13;;
79284;SDS011;68734;50.452;11.636;2023-06-14T12:30:29;3.45;;;1.98;;
79284;SDS011;68734;50.452;11.636;2023-06-14T12:32:54;3.28;;;1.95;;
79284;SDS011;68734;50.452;11.636;2023-06-14T12:35:20;2.95;;;1.80;;
79284;SDS011;68734;50.452;11.636;2023-06-14T12:37:46;4.63;;;2.28;;
79284;SDS011;68734;50.452;11.636;2023-06-14T12:40:12;4.85;;;2.20;;
79284;SDS011;68734;50.452;11.636;2023-06-14T12:42:38;3.78;;;2.25;;
79284;SDS011;68734;50.452;11.636;2023-06-14T12:45:05;5.35;;;2.30;;
79284;SDS011;68734;50.452;11.636;2023-06-14T12:47:30;3.55;;;2.10;;
79284;SDS011;68734;50.452;11.636;2023-06-14T12:49:56;3.97;;;2.42;;
79284;SDS011;68734;50.452;11.636;2023-06-14T12:52:21;3.35;;;2.13;;
79284;SDS011;68734;50.452;11.636;2023-06-14T12:54:46;3.10;;;2.17;;
79284;SDS011;68734;50.452;11.636;2023-06-14T12:57:12;2.67;;;2.13;;
79284;SDS011;68734;50.452;11.636;2023-06-14T12:59:37;3.58;;;2.17;;
79284;SDS011;68734;50.452;11.636;2023-06-14T13:02:16;4.85;;;2.05;;
79284;SDS011;68734;50.452;11.636;2023-06-14T13:04:45;4.40;;;1.83;;
79284;SDS011;68734;50.452;11.636;2023-06-14T13:07:10;5.82;;;2.13;;
79284;SDS011;68734;50.452;11.636;2023-06-14T13:09:36;2.58;;;1.88;;
79284;SDS011;68734;50.452;11.636;2023-06-14T13:12:02;2.00;;;1.80;;
79284;SDS011;68734;50.452;11.636;2023-06-14T13:14:28;3.28;;;2.13;;
79284;SDS011;68734;50.452;11.636;2023-06-14T13:16:54;3.85;;;2.00;;
79284;SDS011;68734;50.452;11.636;2023-06-14T13:19:20;4.65;;;2.13;;
79284;SDS011;68734;50.452;11.636;2023-06-14T13:21:46;3.15;;;2.17;;
79284;SDS011;68734;50.452;11.636;2023-06-14T13:24:11;3.08;;;2.10;;
79284;SDS011;68734;50.452;11.636;2023-06-14T13:26:39;5.78;;;2.28;;
79284;SDS011;68734;50.452;11.636;2023-06-14T13:29:05;4.00;;;2.20;;
79284;SDS011;68734;50.452;11.636;2023-06-14T13:31:30;3.75;;;2.22;;
79284;SDS011;68734;50.452;11.636;2023-06-14T13:33:56;2.90;;;2.22;;
79284;SDS011;68734;50.452;11.636;2023-06-14T13:36:23;3.97;;;2.20;;
79284;SDS011;68734;50.452;11.636;2023-06-14T13:38:48;2.70;;;1.95;;
79284;SDS011;68734;50.452;11.636;2023-06-14T13:41:14;3.25;;;2.10;;
79284;SDS011;68734;50.452;11.636;2023-06-14T13:43:40;4.35;;;2.85;;
79284;SDS011;68734;50.452;11.636;2023-06-14T13:46:05;2.85;;;2.13;;
79284;SDS011;68734;50.452;11.636;2023-06-14T13:48:31;3.33;;;2.05;;
79284;SDS011;68734;50.452;11.636;2023-06-14T13:50:56;4.90;;;2.10;;
79284;SDS011;68734;50.452;11.636;2023-06-14T13:53:22;2.97;;;2.03;;
79284;SDS011;68734;50.452;11.636;2023-06-14T13:55:50;4.40;;;2.72;;
79284;SDS011;68734;50.452;11.636;2023-06-14T13:58:17;3.30;;;2.22;;
79284;SDS011;68734;50.452;11.636;2023-06-14T14:00:46;3.22;;;2.30;;
79284;SDS011;68734;50.452;11.636;2023-06-14T14:03:14;3.65;;;1.90;;
79284;SDS011;68734;50.452;11.636;2023-06-14T14:05:39;5.15;;;2.20;;
79284;SDS011;68734;50.452;11.636;2023-06-14T14:08:05;3.58;;;1.90;;
79284;SDS011;68734;50.452;11.636;2023-06-14T14:10:31;5.53;;;2.40;;
79284;SDS011;68734;50.452;11.636;2023-06-14T14:12:58;2.85;;;2.33;;
79284;SDS011;68734;50.452;11.636;2023-06-14T14:15:24;2.42;;;2.03;;
79284;SDS011;68734;50.452;11.636;2023-06-14T14:17:52;3.70;;;2.33;;
79284;SDS011;68734;50.452;11.636;2023-06-14T14:20:19;6.82;;;2.47;;
79284;SDS011;68734;50.452;11.636;2023-06-14T14:22:44;3.95;;;2.33;;
79284;SDS011;68734;50.452;11.636;2023-06-14T14:25:10;2.90;;;2.08;;
79284;SDS011;68734;50.452;11.636;2023-06-14T14:27:36;3.17;;;2.10;;
79284;SDS011;68734;50.452;11.636;2023-06-14T14:30:02;3.35;;;2.30;;
79284;SDS011;68734;50.452;11.636;2023-06-14T14:32:28;2.80;;;2.30;;
79284;SDS011;68734;50.452;11.636;2023-06-14T14:34:54;4.70;;;2.30;;
79284;SDS011;68734;50.452;11.636;2023-06-14T14:37:19;2.78;;;2.28;;
79284;SDS011;68734;50.452;11.636;2023-06-14T14:39:45;3.83;;;2.75;;
79284;SDS011;68734;50.452;11.636;2023-06-14T14:42:11;4.85;;;2.65;;
79284;SDS011;68734;50.452;11.636;2023-06-14T14:44:37;3.03;;;2.08;;
79284;SDS011;68734;50.452;11.636;2023-06-14T14:47:05;3.20;;;2.70;;
79284;SDS011;68734;50.452;11.636;2023-06-14T14:49:31;3.25;;;2.22;;
79284;SDS011;68734;50.452;11.636;2023-06-14T14:51:57;3.83;;;2.13;;